AirNav   Duncan Aviation - Near you to keep you flying
 
 1616 users online  

CA84 Torrey Pines Gliderport
San Diego, California, USA

GOING TO SAN DIEGO?


FAA INFORMATION EFFECTIVE 16 JUNE 2022

Location

FAA Identifier: CA84
Lat/Long: 32-53-23.0000N 117-14-49.0000W
32-53.383333N 117-14.816667W
32.8897222,-117.2469444
(estimated)
Elevation: 372 ft. / 113 m (estimated)
Variation: 13E (1985)
From city: 11 miles NW of SAN DIEGO, CA
Time zone: UTC -7 (UTC -8 during Standard Time)
Zip code: 92037

Gliderport Operations

Gliderport use: Private use. Permission required prior to landing
Activation date: 11/1961
Control tower: no
ARTCC: LOS ANGELES CENTER
FSS: SAN DIEGO FLIGHT SERVICE STATION
Attendance: UNATNDD
Wind indicator: no
Segmented circle: no

Gliderport Communications

WX ASOS at MYF (7 nm SE): 126.9 (858-576-4337)
WX ASOS at SAN (10 nm S): PHONE 619-296-8934
WX AWOS-3P at SEE (14 nm E): 125.45 (619-449-1228)
WX ASOS at CRQ (14 nm N): PHONE 760-930-0864
WX ASOS at RNM (19 nm NE): PHONE 760-789-7699

Gliderport Services

Airframe service: NONE
Powerplant service: NONE

Runway Information

Runway 9/27

Dimensions: 1500 x 30 ft. / 457 x 9 m
Surface: asphalt
RUNWAY 9  RUNWAY 27
Traffic pattern: leftleft
Obstructions: nonetrees, 100 ft. from runway

Gliderport Ownership and Management from official FAA records

Ownership: Publicly-owned
Owner: CITY OF SAN DIEGO
202 C STREET MS 2A
SAN DIEGO, CA 92101
Manager: MAX MARIEN
2800 TORREY PINES SCENIC DRIVE
JO JOLLA, CA 92037
Phone 858-452-9858
WORK PHONE 619-535-9505 EXT 1585

Additional Remarks

GLIDER PORT IS LEASED FM CITY TO THE ASSOCD GLIDER CLUB OF SOUTHERN CALIF FOR STUDENT TRAINING & RIDGE SOARING.
ALL ACFT ARE TRAILERED GLIDERS.
ROLLING RWY .6 PERCENT GRADIENT.
EXTENSIVE HANG GLIDER OPERATIONS ON WEEKENDS AND WEEKDAYS.
FOR CD CTC LOS ANGELES ARTCC AT 661-575-2079.

Instrument Procedures

There are no published instrument procedures at CA84.

Some nearby airports with instrument procedures:

KNKX - Miramar MCAS (Joe Foss Field) Airport (5 nm E)
KMYF - Montgomery-Gibbs Executive Airport (7 nm SE)
KSAN - San Diego International Airport (10 nm S)
KNZY - North Island Naval Air Station (Halsey Field) (12 nm S)
KSEE - Gillespie Field Airport (14 nm E)
KCRQ - Mc Clellan-Palomar Airport (14 nm N)
KRNM - Ramona Airport (19 nm NE)
 
Loc | Ops | Rwys | IFR | FBO | Links
Com | Nav | Svcs | Stats | Notes
Area around CA84 (Torrey Pines Gliderport)
 
Road maps at: MapQuest Bing Google
 
Aerial photo
WARNING: Photo may not be current or correct
Aerial photo of CA84 (Torrey Pines Gliderport)
Photo by Doug Fronius
Photo taken 13-Mar-2004
from a 1942 Schweizer TG-2 sailplane.

Do you have a better or more recent aerial photo of Torrey Pines Gliderport that you would like to share? If so, please send us your photo.

 
Sectional chart

 
Airport distance calculator
Flying to Torrey Pines Gliderport? Find the distance to fly.

From to CA84

Sunrise and sunset
Times for 28-Jun-2022
 Local
(UTC-7)
 Zulu
(UTC)
Morning civil twilight05:1512:15
Sunrise05:4412:44
Sunset20:0003:00
Evening civil twilight20:2903:29

Current date and time
Zulu (UTC)  28-Jun-2022 15:58:02
Local (UTC-7)  28-Jun-2022 08:58:02
 
METAR
KNKX 
6nm E 
281455Z 00000KT 10SM CLR 23/17 A3001 RMK AO2 SLP155 T02280172 52007
KMYF 
7nm SE 
281553Z 00000KT 10SM CLR 27/17 A3001 RMK AO2 SLP157 T02670167
KSAN 
10nm S 
281551Z 33005KT 10SM FEW003 23/18 A3002 RMK AO2 SLP164 T02280183
KNZY 
11nm S 
281552Z 19004KT 10SM FEW003 20/18 A3000 RMK AO2 SLP158 T02000183 $
KCRQ 
15nm N 
281553Z 23003KT 10SM CLR 22/17 A3001 RMK AO2 SLP159 T02170172
KSEE 
15nm E 
281547Z 00000KT 10SM SKC 27/13 A3001
KRNM 
19nm NE 
281553Z VRB04KT 10SM CLR 32/08 A3004 RMK AO2 SLP154 T03170078
TAF
KNKX 
6nm E 
2809/2909 VRB05KT 9999 FEW050 QNH2998INS FM281930 23007KT 9999 FEW060 QNH2999INS T17/2814Z T29/2821Z
KSAN 
10nm S 
281344Z 2814/2918 VRB04KT P6SM SCT005 TEMPO 2814/2815 3SM BR BKN003 FM281800 26009KT P6SM FEW150 FM290200 VRB04KT P6SM FEW010 FM290800 VRB04KT P6SM BKN008 FM291600 VRB04KT P6SM SCT010
KNZY 
11nm S 
2813/2907 33005KT 9999 SCT005 SCT100 QNH2997INS TEMPO 2815/2817 3200 BR BKN003 BKN100 BECMG 2817/2818 26009KT 9999 FEW010 FEW050 SCT100 QNH2995INS FM290200 26004KT 9999 FEW050 SCT100 QNH2997INS T18/2814Z T23/2821Z AMD 1321 FS30139
KCRQ 
15nm N 
281120Z 2812/2912 VRB04KT P6SM FEW005 TEMPO 2813/2815 4SM BR BKN005 FM281800 25007KT P6SM FEW150 FM290200 VRB04KT P6SM FEW007 FM290800 VRB03KT 5SM BR BKN005
NOTAMs
Click for the latest NOTAMs
NOTAMs are issued by the DoD/FAA and will open in a separate window not controlled by AirNav.

 

 
 

Would you like to see your business listed on this page?

 If your business provides an interesting product or service to pilots, flight crews, aircraft, or users of the Torrey Pines Gliderport, you should consider listing it here.  To start the listing process, click on the button below
 
Add a business
 

Other Pages about Torrey Pines Gliderport

www.agcsc.org/torrey_pines_info.html
 
Update a link
 
Copyright © AirNav, LLC. All rights reserved. Privacy Policy  Contact